createdAt,value
2022-07-31T00:00:27.863Z,34.80
2022-07-31T00:02:56.085Z,35.30
2022-07-31T00:05:24.808Z,35.10
2022-07-31T00:07:54.710Z,35.00
2022-07-31T00:10:22.909Z,35.00
2022-07-31T00:12:51.201Z,35.00
2022-07-31T00:15:20.755Z,35.40
2022-07-31T00:17:49.909Z,36.20
2022-07-31T00:20:19.124Z,35.70
2022-07-31T00:22:48.865Z,35.90
2022-07-31T00:25:18.774Z,35.90
2022-07-31T00:27:47.365Z,36.10
2022-07-31T00:30:16.987Z,36.40
2022-07-31T00:32:47.122Z,36.10
2022-07-31T00:35:17.204Z,35.70
2022-07-31T00:37:45.892Z,36.10
2022-07-31T00:40:16.819Z,36.30
2022-07-31T00:42:45.411Z,36.20
2022-07-31T00:45:13.954Z,36.20
2022-07-31T00:47:42.476Z,36.50
2022-07-31T00:50:13.159Z,36.30
2022-07-31T00:52:42.951Z,36.20
2022-07-31T00:55:11.456Z,36.20
2022-07-31T00:57:39.687Z,36.40
2022-07-31T01:00:09.190Z,36.50
2022-07-31T01:02:38.553Z,36.40
2022-07-31T01:05:18.921Z,36.40
2022-07-31T01:07:48.885Z,36.30
2022-07-31T01:10:26.859Z,36.60
2022-07-31T01:12:58.232Z,36.70
2022-07-31T01:15:29.087Z,36.60
2022-07-31T01:17:58.526Z,37.10
2022-07-31T01:20:30.116Z,36.80
2022-07-31T01:23:18.536Z,37.10
2022-07-31T01:26:19.661Z,37.20
2022-07-31T01:29:11.418Z,37.20
2022-07-31T01:31:45.159Z,37.10
2022-07-31T01:34:23.751Z,37.30
2022-07-31T01:37:01.870Z,37.30
2022-07-31T01:39:37.171Z,37.90
2022-07-31T01:42:08.688Z,38.00
2022-07-31T01:44:43.599Z,38.10
2022-07-31T01:47:15.285Z,38.50
2022-07-31T01:49:45.202Z,38.20
2022-07-31T01:52:15.292Z,37.90
2022-07-31T01:54:46.288Z,38.20
2022-07-31T01:57:17.296Z,38.10
2022-07-31T01:59:55.287Z,38.30
2022-07-31T02:02:43.664Z,38.40
2022-07-31T02:05:13.230Z,38.60
2022-07-31T02:07:43.168Z,39.10
2022-07-31T02:10:13.445Z,39.10
2022-07-31T02:12:43.054Z,39.30
2022-07-31T02:15:15.151Z,39.40
2022-07-31T02:17:47.286Z,39.60
2022-07-31T02:20:36.218Z,39.70
2022-07-31T02:23:04.624Z,39.80
2022-07-31T02:25:35.440Z,40.10
2022-07-31T02:28:09.897Z,39.90
2022-07-31T02:30:41.917Z,40.20
2022-07-31T02:33:14.737Z,40.80
2022-07-31T02:35:46.347Z,40.00
2022-07-31T02:38:22.539Z,40.10
2022-07-31T02:40:54.977Z,39.80
2022-07-31T02:43:23.591Z,40.00
2022-07-31T02:45:53.512Z,40.60
2022-07-31T02:48:22.224Z,40.20
2022-07-31T02:50:52.504Z,39.70
2022-07-31T02:53:21.934Z,39.80
2022-07-31T02:55:54.237Z,40.40
2022-07-31T02:58:22.495Z,40.30
2022-07-31T03:01:01.547Z,40.40
2022-07-31T03:03:31.876Z,40.50
2022-07-31T03:06:00.200Z,41.10
2022-07-31T03:08:28.759Z,41.60
2022-07-31T03:11:02.356Z,41.10
2022-07-31T03:13:31.894Z,40.90
2022-07-31T03:16:02.349Z,41.10
2022-07-31T03:18:32.331Z,41.20
2022-07-31T03:21:00.587Z,41.70
2022-07-31T03:23:36.160Z,41.90
2022-07-31T03:26:15.094Z,41.60
2022-07-31T03:28:43.714Z,42.20
2022-07-31T03:31:13.663Z,43.30
2022-07-31T03:33:42.672Z,43.30
2022-07-31T03:36:10.989Z,42.20
2022-07-31T03:38:42.694Z,42.50
2022-07-31T03:41:25.061Z,42.00
2022-07-31T03:43:54.511Z,42.10
2022-07-31T03:46:25.595Z,43.10
2022-07-31T03:48:54.204Z,43.00
2022-07-31T03:51:25.814Z,42.70
2022-07-31T03:53:54.198Z,42.10
2022-07-31T03:56:44.975Z,42.20
2022-07-31T03:59:15.921Z,41.40
2022-07-31T04:01:58.377Z,41.30
2022-07-31T04:04:59.715Z,41.50
2022-07-31T04:07:28.464Z,41.40
2022-07-31T04:09:56.999Z,41.70
2022-07-31T04:12:25.225Z,42.20
2022-07-31T04:14:53.648Z,42.10
2022-07-31T04:17:23.406Z,43.00
2022-07-31T04:19:51.654Z,42.80
2022-07-31T04:22:19.919Z,42.50
2022-07-31T04:24:49.083Z,42.60
2022-07-31T04:27:48.279Z,43.10
2022-07-31T04:30:17.838Z,43.00
2022-07-31T04:32:48.300Z,43.60
2022-07-31T04:35:22.145Z,43.50
2022-07-31T04:37:50.407Z,44.70
2022-07-31T04:40:20.306Z,44.80
2022-07-31T04:42:49.083Z,45.10
2022-07-31T04:45:17.279Z,44.80
2022-07-31T04:47:45.545Z,45.20
2022-07-31T04:50:15.619Z,44.50
2022-07-31T04:52:56.553Z,44.20
2022-07-31T04:55:26.906Z,43.60
2022-07-31T04:57:55.331Z,43.30
2022-07-31T05:00:24.951Z,43.20
2022-07-31T05:02:53.163Z,42.50
2022-07-31T05:05:22.753Z,41.80
2022-07-31T05:07:50.904Z,42.40
2022-07-31T05:10:43.726Z,41.00
2022-07-31T05:13:11.871Z,40.90
2022-07-31T05:15:40.081Z,41.30
2022-07-31T05:18:09.608Z,46.10
2022-07-31T05:20:57.621Z,50.50
2022-07-31T05:23:47.749Z,51.40
2022-07-31T05:26:19.176Z,48.20
2022-07-31T05:28:49.444Z,46.30
2022-07-31T05:31:19.885Z,44.70
2022-07-31T05:33:51.060Z,44.60
2022-07-31T05:36:21.305Z,44.10
2022-07-31T05:38:49.870Z,49.50
2022-07-31T05:41:18.129Z,48.10
2022-07-31T05:44:04.264Z,51.40
2022-07-31T05:46:39.431Z,50.80
2022-07-31T05:49:07.731Z,52.00
2022-07-31T05:51:37.536Z,52.40
2022-07-31T05:54:05.872Z,49.20
2022-07-31T05:56:52.627Z,50.50
2022-07-31T05:59:26.857Z,49.90
2022-07-31T06:01:55.205Z,48.50
2022-07-31T06:04:27.904Z,53.40
2022-07-31T06:06:57.554Z,50.10
2022-07-31T06:09:25.879Z,50.60
2022-07-31T06:11:54.678Z,54.90
2022-07-31T06:14:23.574Z,55.30
2022-07-31T06:17:12.088Z,54.30
2022-07-31T06:19:41.231Z,54.30
2022-07-31T06:22:11.767Z,53.50
2022-07-31T06:24:42.556Z,50.20
2022-07-31T06:27:16.239Z,52.90
2022-07-31T06:29:59.952Z,52.90
2022-07-31T06:32:28.404Z,51.90
2022-07-31T06:34:56.633Z,51.00
2022-07-31T06:37:27.146Z,49.90
2022-07-31T06:39:56.764Z,48.70
2022-07-31T06:42:37.206Z,49.00
2022-07-31T06:45:06.268Z,48.50
2022-07-31T06:47:53.000Z,49.00
2022-07-31T06:50:36.055Z,48.10
2022-07-31T06:53:32.981Z,48.50
2022-07-31T06:56:01.157Z,49.40
2022-07-31T06:58:31.896Z,46.80
2022-07-31T07:01:00.244Z,44.40
2022-07-31T07:03:29.044Z,41.80
2022-07-31T07:05:58.096Z,39.20
2022-07-31T07:08:26.317Z,40.00
2022-07-31T07:10:56.518Z,39.70
2022-07-31T07:13:45.935Z,38.30
2022-07-31T07:16:18.037Z,39.30
2022-07-31T07:18:47.312Z,38.30
2022-07-31T07:21:16.063Z,39.10
2022-07-31T07:23:45.490Z,38.30
2022-07-31T07:26:38.447Z,38.90
2022-07-31T07:29:44.499Z,37.40
2022-07-31T07:32:14.890Z,38.10
2022-07-31T07:34:44.427Z,38.00
2022-07-31T07:37:26.851Z,37.70
2022-07-31T07:39:55.192Z,36.80
2022-07-31T07:42:24.848Z,37.00
2022-07-31T07:44:53.656Z,35.30
2022-07-31T07:47:22.084Z,35.80
2022-07-31T07:49:50.320Z,33.70
2022-07-31T07:52:50.539Z,33.90
2022-07-31T07:55:38.929Z,32.50
2022-07-31T07:58:27.042Z,34.00
2022-07-31T08:01:14.207Z,31.60
2022-07-31T08:03:49.687Z,32.40
2022-07-31T08:06:21.494Z,31.90
2022-07-31T08:08:50.032Z,32.00
2022-07-31T08:11:46.887Z,32.50
2022-07-31T08:14:25.624Z,29.40
2022-07-31T08:17:13.608Z,29.80
2022-07-31T08:19:42.915Z,29.90
2022-07-31T08:22:11.414Z,30.90
2022-07-31T08:24:39.717Z,29.10
2022-07-31T08:27:39.567Z,31.10
2022-07-31T08:30:11.964Z,29.20
2022-07-31T08:32:40.191Z,28.60
2022-07-31T08:35:14.156Z,28.90
2022-07-31T08:37:51.761Z,28.60
2022-07-31T08:40:33.536Z,29.60
2022-07-31T08:43:59.487Z,30.10
2022-07-31T08:46:03.595Z,31.20
2022-07-31T08:48:41.505Z,29.80
2022-07-31T08:51:13.774Z,29.40
2022-07-31T08:54:08.728Z,28.70
2022-07-31T08:56:37.685Z,28.30
2022-07-31T08:59:06.676Z,28.60
2022-07-31T09:01:38.837Z,27.60
2022-07-31T09:04:07.250Z,28.30
2022-07-31T09:06:35.732Z,26.40
2022-07-31T09:09:04.824Z,27.00
2022-07-31T09:11:34.079Z,27.20
2022-07-31T09:14:34.868Z,26.40
2022-07-31T09:17:10.045Z,25.20
2022-07-31T09:19:52.508Z,25.90
2022-07-31T09:22:28.106Z,24.90
2022-07-31T09:25:12.026Z,24.30
2022-07-31T09:27:41.058Z,25.50
2022-07-31T09:30:10.952Z,25.20
2022-07-31T09:33:17.083Z,24.90
2022-07-31T09:36:04.253Z,22.50
2022-07-31T09:38:36.586Z,23.90
2022-07-31T09:41:55.831Z,23.10
2022-07-31T09:44:17.543Z,23.90
2022-07-31T09:46:50.248Z,24.40
2022-07-31T09:49:19.988Z,23.10
2022-07-31T09:51:49.136Z,23.50
2022-07-31T09:54:22.181Z,22.00
2022-07-31T09:56:53.415Z,22.70
2022-07-31T09:59:23.949Z,21.50
2022-07-31T10:01:53.236Z,21.00
2022-07-31T10:04:24.395Z,22.60
2022-07-31T10:06:53.772Z,21.20
2022-07-31T10:09:24.654Z,22.40
2022-07-31T10:11:56.875Z,22.30
2022-07-31T10:14:33.150Z,21.70
2022-07-31T10:17:04.818Z,21.70
2022-07-31T10:19:48.256Z,20.50
2022-07-31T10:22:40.169Z,20.40
2022-07-31T10:25:12.882Z,19.90
2022-07-31T10:27:42.919Z,20.20
2022-07-31T10:30:14.314Z,20.60
2022-07-31T10:32:47.351Z,18.50
2022-07-31T10:35:26.509Z,20.70
2022-07-31T10:38:08.957Z,19.60
2022-07-31T10:41:00.117Z,20.40
2022-07-31T10:43:30.865Z,19.50
2022-07-31T10:46:12.981Z,19.10
2022-07-31T10:48:54.238Z,20.00
2022-07-31T10:51:56.227Z,19.00
2022-07-31T10:54:54.614Z,19.60
2022-07-31T10:57:56.223Z,18.40
2022-07-31T11:00:45.874Z,20.80
2022-07-31T11:03:46.638Z,19.20
2022-07-31T11:06:40.254Z,19.20
2022-07-31T11:09:30.000Z,18.90
2022-07-31T11:12:19.132Z,19.20
2022-07-31T11:15:06.599Z,18.90
2022-07-31T11:18:21.160Z,19.10
2022-07-31T11:21:09.451Z,18.30
2022-07-31T11:23:56.108Z,17.80
2022-07-31T11:26:41.003Z,17.20
2022-07-31T11:30:00.627Z,18.00
2022-07-31T11:32:15.024Z,19.20
2022-07-31T11:34:50.901Z,18.10
2022-07-31T11:37:20.710Z,18.30
2022-07-31T11:39:51.660Z,18.10
2022-07-31T11:42:26.530Z,17.40
2022-07-31T11:45:11.037Z,17.70
2022-07-31T11:48:11.566Z,17.30
2022-07-31T11:50:30.996Z,17.10
2022-07-31T11:53:04.382Z,17.50
2022-07-31T11:55:33.050Z,17.70
2022-07-31T11:58:02.784Z,17.80
2022-07-31T12:00:31.070Z,17.30
2022-07-31T12:02:59.774Z,17.80
2022-07-31T12:05:38.036Z,17.60
2022-07-31T12:08:09.361Z,17.80
2022-07-31T12:10:38.096Z,18.10
2022-07-31T12:13:15.725Z,18.60
2022-07-31T12:15:55.724Z,18.50
2022-07-31T12:18:24.158Z,18.80
2022-07-31T12:20:55.240Z,18.40
2022-07-31T12:23:40.184Z,18.60
2022-07-31T12:26:12.786Z,18.10
2022-07-31T12:28:43.690Z,18.60
2022-07-31T12:31:11.907Z,17.60
2022-07-31T12:33:44.423Z,17.80
2022-07-31T12:36:17.732Z,17.40
2022-07-31T12:38:48.438Z,19.40
2022-07-31T12:41:17.921Z,18.70
2022-07-31T12:43:52.074Z,18.50
2022-07-31T12:46:22.813Z,18.30
2022-07-31T12:48:51.945Z,19.50
2022-07-31T12:51:44.334Z,18.90
2022-07-31T12:54:10.180Z,17.90
2022-07-31T12:56:39.588Z,17.90
2022-07-31T12:59:10.288Z,17.60
2022-07-31T13:01:39.172Z,17.50
2022-07-31T13:04:18.891Z,16.90
2022-07-31T13:06:51.658Z,17.40
2022-07-31T13:09:21.191Z,17.40
2022-07-31T13:11:52.227Z,17.90
2022-07-31T13:14:24.687Z,17.70
2022-07-31T13:16:54.953Z,17.20
2022-07-31T13:19:23.343Z,17.50
2022-07-31T13:21:51.471Z,16.50
2022-07-31T13:24:20.338Z,15.90
2022-07-31T13:26:48.625Z,17.10
2022-07-31T13:29:16.834Z,17.10
2022-07-31T13:31:46.637Z,17.30
2022-07-31T13:34:14.993Z,17.40
2022-07-31T13:36:43.209Z,18.00
2022-07-31T13:39:11.749Z,17.70
2022-07-31T13:41:40.044Z,18.60
2022-07-31T13:44:09.534Z,18.80
2022-07-31T13:46:38.271Z,18.20
2022-07-31T13:49:10.521Z,17.80
2022-07-31T13:51:40.161Z,17.70
2022-07-31T13:54:09.859Z,17.40
2022-07-31T13:56:42.643Z,17.80
2022-07-31T13:59:12.951Z,17.80
2022-07-31T14:02:03.740Z,18.00
2022-07-31T14:04:32.678Z,17.10
2022-07-31T14:07:04.133Z,17.40
2022-07-31T14:09:35.282Z,17.30
2022-07-31T14:12:04.382Z,17.70
2022-07-31T14:14:34.119Z,17.20
2022-07-31T14:17:02.273Z,17.80
2022-07-31T14:19:43.828Z,16.70
2022-07-31T14:22:13.873Z,16.60
2022-07-31T14:24:49.306Z,17.50
2022-07-31T14:27:19.684Z,17.80
2022-07-31T14:29:48.068Z,17.20
2022-07-31T14:32:16.311Z,17.30
2022-07-31T14:34:45.864Z,17.20
2022-07-31T14:37:14.037Z,17.20
2022-07-31T14:39:42.919Z,16.60
2022-07-31T14:42:12.441Z,17.10
2022-07-31T14:44:42.421Z,17.10
2022-07-31T14:47:11.367Z,17.00
2022-07-31T14:50:09.848Z,17.30
2022-07-31T14:52:29.984Z,16.60
2022-07-31T14:55:00.367Z,17.40
2022-07-31T14:57:28.794Z,16.10
2022-07-31T14:59:56.948Z,16.30
2022-07-31T15:02:25.183Z,16.80
2022-07-31T15:04:53.773Z,16.40
2022-07-31T15:07:43.931Z,16.50
2022-07-31T15:10:12.807Z,16.90
2022-07-31T15:12:41.374Z,16.60
2022-07-31T15:15:10.580Z,17.20
2022-07-31T15:17:38.852Z,16.20
2022-07-31T15:20:08.094Z,16.90
2022-07-31T15:22:36.371Z,17.20
2022-07-31T15:25:04.804Z,17.20
2022-07-31T15:27:34.303Z,17.00
2022-07-31T15:30:06.871Z,17.10
2022-07-31T15:32:37.175Z,16.40
2022-07-31T15:35:06.117Z,16.90
2022-07-31T15:37:36.077Z,16.90
2022-07-31T15:40:07.064Z,17.00
2022-07-31T15:42:40.452Z,17.50
2022-07-31T15:45:12.288Z,16.50
2022-07-31T15:47:42.746Z,18.00
2022-07-31T15:50:12.455Z,17.90
2022-07-31T15:52:41.193Z,16.70
2022-07-31T15:55:11.573Z,16.70
2022-07-31T15:57:41.722Z,16.50
2022-07-31T16:00:12.187Z,17.00
2022-07-31T16:02:41.540Z,17.10
2022-07-31T16:05:30.959Z,16.80
2022-07-31T16:08:30.840Z,16.90
2022-07-31T16:10:52.639Z,16.80
2022-07-31T16:13:24.898Z,17.10
2022-07-31T16:15:53.552Z,17.10
2022-07-31T16:18:22.231Z,17.10
2022-07-31T16:20:50.525Z,17.40
2022-07-31T16:23:18.793Z,17.70
2022-07-31T16:25:47.041Z,17.70
2022-07-31T16:28:15.233Z,17.70
2022-07-31T16:30:45.700Z,16.80
2022-07-31T16:33:13.958Z,16.40
2022-07-31T16:35:42.325Z,17.00
2022-07-31T16:38:10.579Z,17.20
2022-07-31T16:40:38.739Z,17.40
2022-07-31T16:43:48.295Z,18.00
2022-07-31T16:45:58.446Z,17.40
2022-07-31T16:48:26.670Z,17.00
2022-07-31T16:50:55.341Z,16.90
2022-07-31T16:54:13.349Z,17.30
2022-07-31T16:56:12.441Z,16.30
2022-07-31T16:58:41.038Z,16.70
2022-07-31T17:01:59.204Z,17.90
2022-07-31T17:04:03.550Z,17.40
2022-07-31T17:06:36.300Z,17.60
2022-07-31T17:09:17.341Z,16.40
2022-07-31T17:11:49.091Z,16.10
2022-07-31T17:14:18.835Z,16.20
2022-07-31T17:16:49.653Z,16.60
2022-07-31T17:19:42.421Z,16.90
2022-07-31T17:22:11.247Z,16.10
2022-07-31T17:24:40.203Z,16.20
2022-07-31T17:27:09.564Z,16.30
2022-07-31T17:29:39.432Z,16.30
2022-07-31T17:32:11.167Z,17.40
2022-07-31T17:34:40.211Z,16.90
2022-07-31T17:37:08.802Z,17.20
2022-07-31T17:39:37.326Z,17.90
2022-07-31T17:42:05.794Z,17.10
2022-07-31T17:44:34.162Z,16.90
2022-07-31T17:47:05.064Z,16.70
2022-07-31T17:49:34.994Z,17.30
2022-07-31T17:52:03.249Z,17.00
2022-07-31T17:54:32.670Z,17.00
2022-07-31T17:57:01.236Z,16.80
2022-07-31T17:59:29.812Z,17.20
2022-07-31T18:02:00.713Z,17.00
2022-07-31T18:04:30.001Z,16.80
2022-07-31T18:07:01.637Z,16.40
2022-07-31T18:09:30.112Z,17.00
2022-07-31T18:11:58.886Z,16.30
2022-07-31T18:14:27.171Z,16.30
2022-07-31T18:16:55.690Z,16.70
2022-07-31T18:19:24.146Z,16.20
2022-07-31T18:21:52.895Z,16.50
2022-07-31T18:24:23.027Z,17.40
2022-07-31T18:26:51.520Z,17.80
2022-07-31T18:29:19.777Z,16.90
2022-07-31T18:31:48.743Z,16.30
2022-07-31T18:34:17.466Z,15.90
2022-07-31T18:36:45.983Z,15.80
2022-07-31T18:39:14.176Z,15.50
2022-07-31T18:41:48.591Z,15.80
2022-07-31T18:44:17.510Z,16.90
2022-07-31T18:46:45.785Z,16.80
2022-07-31T18:51:01.208Z,16.70
2022-07-31T18:52:04.214Z,17.00
2022-07-31T18:54:32.688Z,17.20
2022-07-31T18:57:03.431Z,17.10
2022-07-31T18:59:31.769Z,17.30
2022-07-31T19:02:00.582Z,17.60
2022-07-31T19:04:29.587Z,17.90
2022-07-31T19:06:58.078Z,18.10
2022-07-31T19:09:26.258Z,18.60
2022-07-31T19:11:58.483Z,18.70
2022-07-31T19:14:28.576Z,19.40
2022-07-31T19:16:59.895Z,19.60
2022-07-31T19:19:35.837Z,18.90
2022-07-31T19:22:16.645Z,18.60
2022-07-31T19:24:44.789Z,19.00
2022-07-31T19:27:13.144Z,19.00
2022-07-31T19:29:42.877Z,19.00
2022-07-31T19:32:11.455Z,19.30
2022-07-31T19:34:39.693Z,19.50
2022-07-31T19:37:10.523Z,19.80
2022-07-31T19:39:38.813Z,20.20
2022-07-31T19:42:11.581Z,20.10
2022-07-31T19:44:40.477Z,20.40
2022-07-31T19:47:10.133Z,20.50
2022-07-31T19:49:41.275Z,21.00
2022-07-31T19:52:09.562Z,20.80
2022-07-31T19:54:37.829Z,20.70
2022-07-31T19:57:06.218Z,20.90
2022-07-31T19:59:34.516Z,20.80
2022-07-31T20:02:03.071Z,21.50
2022-07-31T20:04:32.859Z,22.20
2022-07-31T20:07:01.003Z,22.10
2022-07-31T20:09:30.580Z,22.70
2022-07-31T20:11:58.808Z,22.60
2022-07-31T20:14:26.995Z,22.70
2022-07-31T20:16:55.163Z,22.20
2022-07-31T20:19:23.364Z,22.40
2022-07-31T20:21:53.225Z,22.70
2022-07-31T20:24:21.375Z,22.80
2022-07-31T20:26:49.638Z,23.30
2022-07-31T20:29:17.815Z,23.60
2022-07-31T20:31:45.928Z,23.10
2022-07-31T20:34:15.099Z,23.90
2022-07-31T20:36:43.252Z,23.40
2022-07-31T20:39:13.004Z,23.80
2022-07-31T20:41:41.163Z,24.90
2022-07-31T20:44:09.527Z,24.50
2022-07-31T20:46:37.817Z,25.10
2022-07-31T20:49:06.159Z,25.60
2022-07-31T20:51:34.913Z,25.10
2022-07-31T20:54:03.156Z,25.30
2022-07-31T20:56:33.231Z,25.90
2022-07-31T20:59:01.723Z,25.80
2022-07-31T21:01:29.931Z,26.40
2022-07-31T21:03:58.412Z,26.50
2022-07-31T21:06:27.107Z,27.40
2022-07-31T21:08:55.280Z,26.40
2022-07-31T21:11:31.544Z,26.90
2022-07-31T21:14:02.862Z,26.30
2022-07-31T21:16:31.283Z,26.80
2022-07-31T21:18:59.484Z,28.80
2022-07-31T21:21:27.687Z,27.00
2022-07-31T21:24:00.571Z,26.90
2022-07-31T21:26:29.877Z,27.20
2022-07-31T21:28:58.627Z,27.50
2022-07-31T21:31:28.741Z,27.80
2022-07-31T21:33:57.439Z,28.30
2022-07-31T21:36:25.822Z,28.10
2022-07-31T21:38:54.551Z,28.40
2022-07-31T21:41:24.159Z,28.10
2022-07-31T21:43:59.523Z,28.00
2022-07-31T21:46:30.231Z,29.00
2022-07-31T21:48:59.885Z,28.70
2022-07-31T21:51:29.021Z,28.70
2022-07-31T21:53:57.212Z,28.90
2022-07-31T21:56:26.917Z,29.10
2022-07-31T21:58:55.113Z,29.60
2022-07-31T22:01:23.658Z,29.70
2022-07-31T22:03:53.211Z,29.30
2022-07-31T22:06:38.770Z,29.70
2022-07-31T22:09:06.966Z,29.70
2022-07-31T22:11:35.755Z,29.60
2022-07-31T22:14:03.912Z,31.20
2022-07-31T22:16:32.211Z,31.40
2022-07-31T22:19:02.393Z,32.50
2022-07-31T22:21:30.900Z,33.30
2022-07-31T22:23:59.496Z,32.80
2022-07-31T22:26:28.860Z,33.50
2022-07-31T22:28:57.455Z,33.70
2022-07-31T22:31:26.394Z,33.00
2022-07-31T22:33:54.727Z,32.70
2022-07-31T22:36:26.159Z,32.20
2022-07-31T22:38:54.442Z,32.00
2022-07-31T22:41:22.710Z,32.00
2022-07-31T22:44:14.094Z,32.30
2022-07-31T22:46:39.360Z,32.60
2022-07-31T22:49:09.617Z,33.10
2022-07-31T22:51:41.666Z,33.10
2022-07-31T22:54:13.084Z,33.50
2022-07-31T22:56:41.259Z,33.50
2022-07-31T22:59:09.595Z,33.30
2022-07-31T23:01:37.738Z,33.30
2022-07-31T23:04:06.495Z,33.10
2022-07-31T23:06:34.707Z,33.00
2022-07-31T23:09:04.548Z,33.20
2022-07-31T23:11:32.667Z,33.30
2022-07-31T23:14:00.839Z,33.60
2022-07-31T23:16:29.208Z,33.50
2022-07-31T23:18:57.387Z,33.50
2022-07-31T23:21:25.976Z,33.80
2022-07-31T23:23:54.339Z,33.40
2022-07-31T23:26:25.233Z,34.30
2022-07-31T23:28:55.012Z,34.10
2022-07-31T23:31:24.087Z,34.30
2022-07-31T23:33:53.053Z,34.80
2022-07-31T23:36:21.375Z,35.10
2022-07-31T23:38:49.593Z,35.30
2022-07-31T23:41:38.891Z,36.80
2022-07-31T23:44:09.862Z,38.20
2022-07-31T23:46:40.373Z,37.60
2022-07-31T23:49:09.237Z,37.50
2022-07-31T23:51:37.588Z,36.50
2022-07-31T23:54:06.297Z,36.10
2022-07-31T23:56:34.698Z,36.20
2022-07-31T23:59:02.898Z,36.20
